createdAt,value
2018-04-27T00:00:30.808Z,9.82
2018-04-27T00:02:59.175Z,9.78
2018-04-27T00:05:27.488Z,9.79
2018-04-27T00:07:55.835Z,9.79
2018-04-27T00:10:24.162Z,9.77
2018-04-27T00:12:52.512Z,9.80
2018-04-27T00:15:20.832Z,9.78
2018-04-27T00:17:49.180Z,9.75
2018-04-27T00:20:17.508Z,9.79
2018-04-27T00:22:45.851Z,9.83
2018-04-27T00:25:14.180Z,9.72
2018-04-27T00:27:42.530Z,9.65
2018-04-27T00:30:10.852Z,9.60
2018-04-27T00:32:39.196Z,9.59
2018-04-27T00:35:07.522Z,9.54
2018-04-27T00:37:35.869Z,9.50
2018-04-27T00:40:04.192Z,9.52
2018-04-27T00:42:32.542Z,9.55
2018-04-27T00:45:00.870Z,9.58
2018-04-27T00:47:29.215Z,9.49
2018-04-27T00:49:57.550Z,9.52
2018-04-27T00:52:25.897Z,9.62
2018-04-27T00:54:54.229Z,9.59
2018-04-27T00:57:22.572Z,9.53
2018-04-27T00:59:50.904Z,9.46
2018-04-27T01:02:19.253Z,9.44
2018-04-27T01:04:47.579Z,9.52
2018-04-27T01:07:15.927Z,9.53
2018-04-27T01:09:44.253Z,9.61
2018-04-27T01:12:12.596Z,9.74
2018-04-27T01:14:40.916Z,9.80
2018-04-27T01:17:09.252Z,9.83
2018-04-27T01:19:37.575Z,9.82
2018-04-27T01:22:05.921Z,9.75
2018-04-27T01:24:34.243Z,9.77
2018-04-27T01:27:02.580Z,9.80
2018-04-27T01:29:30.904Z,9.78
2018-04-27T01:31:59.220Z,9.77
2018-04-27T01:34:27.565Z,9.77
2018-04-27T01:36:55.888Z,9.70
2018-04-27T01:39:24.233Z,9.64
2018-04-27T01:41:52.553Z,9.66
2018-04-27T01:44:20.901Z,9.67
2018-04-27T01:46:49.227Z,9.71
2018-04-27T01:49:17.565Z,9.75
2018-04-27T01:51:45.883Z,9.77
2018-04-27T01:54:14.229Z,9.74
2018-04-27T01:56:42.561Z,9.69
2018-04-27T01:59:10.906Z,9.69
2018-04-27T02:01:39.215Z,9.67
2018-04-27T02:04:07.569Z,9.63
2018-04-27T02:06:35.892Z,9.59
2018-04-27T02:09:04.246Z,9.40
2018-04-27T02:11:32.573Z,9.36
2018-04-27T02:14:00.912Z,9.39
2018-04-27T02:16:29.572Z,9.34
2018-04-27T02:18:57.904Z,9.28
2018-04-27T02:21:26.228Z,9.23
2018-04-27T02:23:54.581Z,9.20
2018-04-27T02:26:22.900Z,9.27
2018-04-27T02:28:51.245Z,9.37
2018-04-27T02:31:19.575Z,9.43
2018-04-27T02:33:47.917Z,9.40
2018-04-27T02:36:16.240Z,9.44
2018-04-27T02:38:44.595Z,9.50
2018-04-27T02:41:12.912Z,9.56
2018-04-27T02:43:41.256Z,9.61
2018-04-27T02:46:09.581Z,9.64
2018-04-27T02:48:37.929Z,9.63
2018-04-27T02:51:06.256Z,9.62
2018-04-27T02:53:34.603Z,9.61
2018-04-27T02:56:02.928Z,9.61
2018-04-27T02:58:31.284Z,9.60
2018-04-27T03:00:59.608Z,9.59
2018-04-27T03:03:27.952Z,9.61
2018-04-27T03:05:56.330Z,9.66
2018-04-27T03:08:24.672Z,9.60
2018-04-27T03:10:52.989Z,9.44
2018-04-27T03:13:21.338Z,9.29
2018-04-27T03:15:49.661Z,9.29
2018-04-27T03:18:18.009Z,9.34
2018-04-27T03:20:46.345Z,9.34
2018-04-27T03:23:14.692Z,9.31
2018-04-27T03:25:43.021Z,9.16
2018-04-27T03:28:11.372Z,9.07
2018-04-27T03:30:39.701Z,8.95
2018-04-27T03:33:08.022Z,8.94
2018-04-27T03:35:36.373Z,8.93
2018-04-27T03:38:04.697Z,8.89
2018-04-27T03:40:33.047Z,8.83
2018-04-27T03:43:01.377Z,8.83
2018-04-27T03:45:29.740Z,8.85
2018-04-27T03:47:58.057Z,8.84
2018-04-27T03:50:26.397Z,8.85
2018-04-27T03:52:54.720Z,8.91
2018-04-27T03:55:23.064Z,8.99
2018-04-27T03:57:51.391Z,9.02
2018-04-27T04:00:31.720Z,9.08
2018-04-27T04:03:11.949Z,9.16
2018-04-27T04:05:40.291Z,9.22
2018-04-27T04:08:08.661Z,9.24
2018-04-27T04:10:36.969Z,9.20
2018-04-27T04:13:05.297Z,9.11
2018-04-27T04:15:33.649Z,9.06
2018-04-27T04:18:01.972Z,8.99
2018-04-27T04:20:30.312Z,9.08
2018-04-27T04:22:58.645Z,9.15
2018-04-27T04:25:26.998Z,9.20
2018-04-27T04:27:55.316Z,9.22
2018-04-27T04:30:23.664Z,9.22
2018-04-27T04:32:51.992Z,9.25
2018-04-27T04:35:20.332Z,9.29
2018-04-27T04:37:48.664Z,9.34
2018-04-27T04:40:17.012Z,9.34
2018-04-27T04:42:45.344Z,9.41
2018-04-27T04:45:13.701Z,9.45
2018-04-27T04:47:42.016Z,9.50
2018-04-27T04:50:10.369Z,9.48
2018-04-27T04:52:38.716Z,9.54
2018-04-27T04:55:07.040Z,9.57
2018-04-27T04:57:35.380Z,9.59
2018-04-27T05:00:03.728Z,9.62
2018-04-27T05:02:32.060Z,9.62
2018-04-27T05:05:00.412Z,9.60
2018-04-27T05:07:29.708Z,9.56
2018-04-27T05:09:58.060Z,9.58
2018-04-27T05:12:26.388Z,9.62
2018-04-27T05:14:54.740Z,9.59
2018-04-27T05:17:23.069Z,9.62
2018-04-27T05:19:54.783Z,9.72
2018-04-27T05:22:23.112Z,9.80
2018-04-27T05:24:51.453Z,9.86
2018-04-27T05:27:19.783Z,10.00
2018-04-27T05:29:49.287Z,10.08
2018-04-27T05:32:17.532Z,10.22
2018-04-27T05:34:45.879Z,10.45
2018-04-27T05:37:14.213Z,10.68
2018-04-27T05:39:42.576Z,10.81
2018-04-27T05:42:10.914Z,10.96
2018-04-27T05:44:39.274Z,11.14
2018-04-27T05:47:07.609Z,11.31
2018-04-27T05:49:35.964Z,11.43
2018-04-27T05:52:04.303Z,11.65
2018-04-27T05:54:32.778Z,11.99
2018-04-27T05:57:01.089Z,12.40
2018-04-27T05:59:29.420Z,12.68
2018-04-27T06:01:57.781Z,12.93
2018-04-27T06:04:26.117Z,13.16
2018-04-27T06:06:55.400Z,13.43
2018-04-27T06:09:24.551Z,13.48
2018-04-27T06:11:52.921Z,13.61
2018-04-27T06:14:21.254Z,13.71
2018-04-27T06:16:49.608Z,13.63
2018-04-27T06:19:17.945Z,13.65
2018-04-27T06:21:46.304Z,13.92
2018-04-27T06:24:14.640Z,14.22
2018-04-27T06:26:43.001Z,14.45
2018-04-27T06:29:11.568Z,14.38
2018-04-27T06:31:39.939Z,14.32
2018-04-27T06:34:08.269Z,14.28
2018-04-27T06:36:36.632Z,14.33
2018-04-27T06:39:04.965Z,14.38
2018-04-27T06:41:33.329Z,14.44
2018-04-27T06:44:01.660Z,14.18
2018-04-27T06:46:30.527Z,14.16
2018-04-27T06:48:59.807Z,14.36
2018-04-27T06:51:28.158Z,14.40
2018-04-27T06:53:56.487Z,14.35
2018-04-27T06:56:24.846Z,14.46
2018-04-27T06:58:53.176Z,14.55
2018-04-27T07:01:21.533Z,14.41
2018-04-27T07:03:49.864Z,14.30
2018-04-27T07:06:18.213Z,14.30
2018-04-27T07:08:46.536Z,14.30
2018-04-27T07:11:14.897Z,14.37
2018-04-27T07:13:43.213Z,14.25
2018-04-27T07:16:11.565Z,14.08
2018-04-27T07:18:39.898Z,14.05
2018-04-27T07:21:08.252Z,14.06
2018-04-27T07:23:36.585Z,14.07
2018-04-27T07:26:04.928Z,13.92
2018-04-27T07:28:34.153Z,13.74
2018-04-27T07:31:02.500Z,13.68
2018-04-27T07:33:30.834Z,13.64
2018-04-27T07:35:59.180Z,13.63
2018-04-27T07:38:27.504Z,13.66
2018-04-27T07:40:55.857Z,13.70
2018-04-27T07:43:24.179Z,13.74
2018-04-27T07:45:52.528Z,13.80
2018-04-27T07:48:20.874Z,13.82
2018-04-27T07:50:49.216Z,13.92
2018-04-27T07:53:17.548Z,13.99
2018-04-27T07:55:45.902Z,14.10
2018-04-27T07:58:14.245Z,14.19
2018-04-27T08:00:42.609Z,14.25
2018-04-27T08:03:10.940Z,14.31
2018-04-27T08:05:39.269Z,14.39
2018-04-27T08:08:08.514Z,14.50
2018-04-27T08:10:36.845Z,14.50
2018-04-27T08:13:05.222Z,14.49
2018-04-27T08:15:33.567Z,14.54
2018-04-27T08:18:01.917Z,14.56
2018-04-27T08:20:30.240Z,14.63
2018-04-27T08:22:59.516Z,14.70
2018-04-27T08:25:27.896Z,14.74
2018-04-27T08:27:56.242Z,14.69
2018-04-27T08:30:24.564Z,14.71
2018-04-27T08:32:52.945Z,14.79
2018-04-27T08:35:21.284Z,14.88
2018-04-27T08:37:49.627Z,14.99
2018-04-27T08:40:17.952Z,15.08
2018-04-27T08:42:46.305Z,15.15
2018-04-27T08:45:14.624Z,15.28
2018-04-27T08:47:42.980Z,15.38
2018-04-27T08:50:11.309Z,15.44
2018-04-27T08:52:39.656Z,15.43
2018-04-27T08:55:07.987Z,15.50
2018-04-27T08:57:36.340Z,15.58
2018-04-27T09:00:04.673Z,15.66
2018-04-27T09:02:33.026Z,15.75
2018-04-27T09:05:01.352Z,15.76
2018-04-27T09:07:30.625Z,15.89
2018-04-27T09:09:58.973Z,15.96
2018-04-27T09:12:27.317Z,16.02
2018-04-27T09:14:55.648Z,16.04
2018-04-27T09:17:24.013Z,16.08
2018-04-27T09:19:52.405Z,16.20
2018-04-27T09:22:20.762Z,16.23
2018-04-27T09:24:49.088Z,16.19
2018-04-27T09:27:18.337Z,16.17
2018-04-27T09:29:46.668Z,16.22
2018-04-27T09:32:15.198Z,16.25
2018-04-27T09:34:43.487Z,16.31
2018-04-27T09:37:11.842Z,16.44
2018-04-27T09:39:40.177Z,16.58
2018-04-27T09:42:08.524Z,16.58
2018-04-27T09:44:36.852Z,16.68
2018-04-27T09:47:05.195Z,16.64
2018-04-27T09:49:33.517Z,16.61
2018-04-27T09:52:01.862Z,16.67
2018-04-27T09:54:30.191Z,16.71
2018-04-27T09:56:58.545Z,16.78
2018-04-27T09:59:26.870Z,16.81
2018-04-27T10:01:55.221Z,16.89
2018-04-27T10:04:23.543Z,16.88
2018-04-27T10:06:51.865Z,16.90
2018-04-27T10:09:20.212Z,17.09
2018-04-27T10:11:48.545Z,17.12
2018-04-27T10:14:16.889Z,17.00
2018-04-27T10:16:45.212Z,17.10
2018-04-27T10:19:13.557Z,17.30
2018-04-27T10:21:41.882Z,17.32
2018-04-27T10:24:10.225Z,17.28
2018-04-27T10:26:38.553Z,17.31
2018-04-27T10:29:06.905Z,17.34
2018-04-27T10:31:35.221Z,17.52
2018-04-27T10:34:03.565Z,17.64
2018-04-27T10:36:32.009Z,17.73
2018-04-27T10:39:00.262Z,17.76
2018-04-27T10:41:28.584Z,17.78
2018-04-27T10:43:56.932Z,17.86
2018-04-27T10:46:25.256Z,18.03
2018-04-27T10:48:53.604Z,18.04
2018-04-27T10:51:21.924Z,18.01
2018-04-27T10:53:50.266Z,17.94
2018-04-27T10:56:18.588Z,17.92
2018-04-27T10:58:46.928Z,17.93
2018-04-27T11:01:15.253Z,17.92
2018-04-27T11:03:43.600Z,17.94
2018-04-27T11:06:11.929Z,17.95
2018-04-27T11:08:40.318Z,18.01
2018-04-27T11:11:08.601Z,17.98
2018-04-27T11:13:36.941Z,17.92
2018-04-27T11:16:05.256Z,17.79
2018-04-27T11:18:33.600Z,17.65
2018-04-27T11:21:01.921Z,17.71
2018-04-27T11:23:30.260Z,17.77
2018-04-27T11:25:58.588Z,17.79
2018-04-27T11:28:26.928Z,18.02
2018-04-27T11:30:55.249Z,18.54
2018-04-27T11:33:23.592Z,18.88
2018-04-27T11:35:51.917Z,19.12
2018-04-27T11:38:20.261Z,19.14
2018-04-27T11:40:48.579Z,18.97
2018-04-27T11:43:16.921Z,18.97
2018-04-27T11:45:45.235Z,19.06
2018-04-27T11:48:13.583Z,19.09
2018-04-27T11:51:11.412Z,19.11
2018-04-27T11:53:39.756Z,19.07
2018-04-27T11:56:08.175Z,19.11
2018-04-27T11:58:36.426Z,19.21
2018-04-27T12:01:04.749Z,19.32
2018-04-27T12:03:33.094Z,19.29
2018-04-27T12:06:01.417Z,19.10
2018-04-27T12:08:29.793Z,19.14
2018-04-27T12:10:58.120Z,19.31
2018-04-27T12:13:26.914Z,19.30
2018-04-27T12:15:55.301Z,19.40
2018-04-27T12:18:24.331Z,19.43
2018-04-27T12:20:52.731Z,19.50
2018-04-27T12:23:21.077Z,19.44
2018-04-27T12:25:49.407Z,19.50
2018-04-27T12:28:17.762Z,19.54
2018-04-27T12:30:46.085Z,19.53
2018-04-27T12:33:14.411Z,19.42
2018-04-27T12:35:42.747Z,19.52
2018-04-27T12:38:11.082Z,19.65
2018-04-27T12:40:39.424Z,19.53
2018-04-27T12:43:07.749Z,19.53
2018-04-27T12:45:36.094Z,19.53
2018-04-27T12:48:04.427Z,19.46
2018-04-27T12:50:32.772Z,19.51
2018-04-27T12:53:01.100Z,19.47
2018-04-27T12:55:29.456Z,19.35
2018-04-27T12:57:57.785Z,19.36
2018-04-27T13:00:26.132Z,19.40
2018-04-27T13:02:54.451Z,19.46
2018-04-27T13:05:22.792Z,19.59
2018-04-27T13:07:51.164Z,19.57
2018-04-27T13:10:19.463Z,19.56
2018-04-27T13:12:47.787Z,19.51
2018-04-27T13:15:16.132Z,19.38
2018-04-27T13:17:44.456Z,19.31
2018-04-27T13:20:12.796Z,19.26
2018-04-27T13:22:41.120Z,19.16
2018-04-27T13:25:09.461Z,19.09
2018-04-27T13:27:37.785Z,19.16
2018-04-27T13:30:06.147Z,19.32
2018-04-27T13:32:34.460Z,19.39
2018-04-27T13:35:02.840Z,19.39
2018-04-27T13:37:31.156Z,19.28
2018-04-27T13:39:59.559Z,19.16
2018-04-27T13:42:28.912Z,19.35
2018-04-27T13:44:57.264Z,19.44
2018-04-27T13:47:25.593Z,19.41
2018-04-27T13:49:53.939Z,19.27
2018-04-27T13:52:22.323Z,19.25
2018-04-27T13:54:50.785Z,19.18
2018-04-27T13:57:19.226Z,19.26
2018-04-27T13:59:47.568Z,19.40
2018-04-27T14:02:15.898Z,19.59
2018-04-27T14:04:44.241Z,19.66
2018-04-27T14:07:12.573Z,19.41
2018-04-27T14:09:40.923Z,19.24
2018-04-27T14:12:09.253Z,19.23
2018-04-27T14:14:37.596Z,19.27
2018-04-27T14:17:05.925Z,19.30
2018-04-27T14:19:34.261Z,19.24
2018-04-27T14:22:02.593Z,19.13
2018-04-27T14:24:30.940Z,18.94
2018-04-27T14:26:59.261Z,18.97
2018-04-27T14:29:27.599Z,18.99
2018-04-27T14:31:55.998Z,19.04
2018-04-27T14:34:24.248Z,19.09
2018-04-27T14:36:52.593Z,19.14
2018-04-27T14:39:20.916Z,19.12
2018-04-27T14:41:49.261Z,19.09
2018-04-27T14:44:17.592Z,19.04
2018-04-27T14:46:45.933Z,18.84
2018-04-27T14:49:14.261Z,18.80
2018-04-27T14:51:42.600Z,18.98
2018-04-27T14:54:10.933Z,19.19
2018-04-27T14:56:39.303Z,19.89
2018-04-27T14:59:07.613Z,19.49
2018-04-27T15:01:36.006Z,19.32
2018-04-27T15:04:04.276Z,19.24
2018-04-27T15:06:32.628Z,19.16
2018-04-27T15:09:00.948Z,19.22
2018-04-27T15:11:29.292Z,19.17
2018-04-27T15:13:57.616Z,19.19
2018-04-27T15:16:25.976Z,19.29
2018-04-27T15:18:54.300Z,19.42
2018-04-27T15:21:22.644Z,19.54
2018-04-27T15:23:50.973Z,19.54
2018-04-27T15:26:19.316Z,19.56
2018-04-27T15:28:47.653Z,19.58
2018-04-27T15:31:16.004Z,19.55
2018-04-27T15:33:44.372Z,19.89
2018-04-27T15:36:12.817Z,20.19
2018-04-27T15:38:41.081Z,20.07
2018-04-27T15:41:09.420Z,19.87
2018-04-27T15:43:37.746Z,19.77
2018-04-27T15:46:06.089Z,19.68
2018-04-27T15:48:34.413Z,19.65
2018-04-27T15:51:02.761Z,19.70
2018-04-27T15:53:31.084Z,19.76
2018-04-27T15:55:59.429Z,19.74
2018-04-27T15:58:27.752Z,19.77
2018-04-27T16:00:56.105Z,19.75
2018-04-27T16:03:24.847Z,19.66
2018-04-27T16:05:53.288Z,19.67
2018-04-27T16:08:21.613Z,19.68
2018-04-27T16:10:49.960Z,19.47
2018-04-27T16:16:16.661Z,19.30
2018-04-27T16:18:44.984Z,19.23
2018-04-27T16:21:13.384Z,19.28
2018-04-27T16:23:41.660Z,19.23
2018-04-27T16:26:10.004Z,19.15
2018-04-27T16:28:38.328Z,19.14
2018-04-27T16:31:06.668Z,19.18
2018-04-27T16:33:34.996Z,19.15
2018-04-27T16:36:04.310Z,19.16
2018-04-27T16:38:32.625Z,19.21
2018-04-27T16:41:00.977Z,19.19
2018-04-27T16:43:29.304Z,19.23
2018-04-27T16:45:57.644Z,19.23
2018-04-27T16:48:25.980Z,19.17
2018-04-27T16:50:54.325Z,19.17
2018-04-27T16:53:22.646Z,19.12
2018-04-27T16:55:51.009Z,19.13
2018-04-27T16:58:19.340Z,19.03
2018-04-27T17:00:47.671Z,18.98
2018-04-27T17:03:16.020Z,18.94
2018-04-27T17:05:44.354Z,18.95
2018-04-27T17:08:12.704Z,18.85
2018-04-27T17:10:41.033Z,18.79
2018-04-27T17:13:09.394Z,18.61
2018-04-27T17:15:38.553Z,18.53
2018-04-27T17:18:06.891Z,18.51
2018-04-27T17:20:35.211Z,18.46
2018-04-27T17:23:03.552Z,18.41
2018-04-27T17:25:31.876Z,18.40
2018-04-27T17:28:00.216Z,18.30
2018-04-27T17:30:28.541Z,18.25
2018-04-27T17:32:56.892Z,18.23
2018-04-27T17:35:25.295Z,18.21
2018-04-27T17:37:53.557Z,18.19
2018-04-27T17:40:21.947Z,18.18
2018-04-27T17:42:50.220Z,18.16
2018-04-27T17:45:18.553Z,18.13
2018-04-27T17:47:46.900Z,18.10
2018-04-27T17:50:15.224Z,18.03
2018-04-27T17:52:43.569Z,18.00
2018-04-27T17:55:11.893Z,17.95
2018-04-27T17:57:40.235Z,17.94
2018-04-27T18:00:08.560Z,17.89
2018-04-27T18:02:36.908Z,17.88
2018-04-27T18:05:05.235Z,17.85
2018-04-27T18:07:33.621Z,17.84
2018-04-27T18:10:01.906Z,17.83
2018-04-27T18:12:30.741Z,17.78
2018-04-27T18:14:59.072Z,17.78
2018-04-27T18:17:27.412Z,17.73
2018-04-27T18:19:55.732Z,17.68
2018-04-27T18:22:24.078Z,17.63
2018-04-27T18:24:52.401Z,17.62
2018-04-27T18:27:21.752Z,17.60
2018-04-27T18:29:50.126Z,17.58
2018-04-27T18:32:19.301Z,17.58
2018-04-27T18:34:47.631Z,17.53
2018-04-27T18:37:15.977Z,17.47
2018-04-27T18:39:44.301Z,17.42
2018-04-27T18:42:18.524Z,17.33
2018-04-27T18:44:46.850Z,17.27
2018-04-27T18:47:15.188Z,17.22
2018-04-27T18:49:43.517Z,17.09
2018-04-27T18:52:11.867Z,17.04
2018-04-27T18:54:40.820Z,17.09
2018-04-27T18:57:09.164Z,16.99
2018-04-27T18:59:37.492Z,16.95
2018-04-27T19:02:05.861Z,16.93
2018-04-27T19:04:34.188Z,16.89
2018-04-27T19:07:02.515Z,16.80
2018-04-27T19:09:30.864Z,16.81
2018-04-27T19:11:59.200Z,16.68
2018-04-27T19:14:27.548Z,16.63
2018-04-27T19:16:55.860Z,16.57
2018-04-27T19:19:24.212Z,16.46
2018-04-27T19:21:52.532Z,16.36
2018-04-27T19:24:20.887Z,16.36
2018-04-27T19:26:49.218Z,16.39
2018-04-27T19:29:17.570Z,16.35
2018-04-27T19:31:45.902Z,16.26
2018-04-27T19:34:14.291Z,16.12
2018-04-27T19:36:42.612Z,16.06
2018-04-27T19:39:10.969Z,15.95
2018-04-27T19:41:39.298Z,15.75
2018-04-27T19:44:07.643Z,15.70
2018-04-27T19:46:35.972Z,15.72
2018-04-27T19:49:04.320Z,15.71
2018-04-27T19:51:32.656Z,15.67
2018-04-27T19:54:01.008Z,15.64
2018-04-27T19:56:29.352Z,15.58
2018-04-27T19:58:57.735Z,15.50
2018-04-27T20:01:26.048Z,15.43
2018-04-27T20:03:54.380Z,15.38
2018-04-27T20:06:22.715Z,15.35
2018-04-27T20:08:51.055Z,15.33
2018-04-27T20:11:19.462Z,15.31
2018-04-27T20:13:47.778Z,15.25
2018-04-27T20:16:27.876Z,15.17
2018-04-27T20:18:56.224Z,15.09
2018-04-27T20:21:24.545Z,15.01
2018-04-27T20:23:52.892Z,14.96
2018-04-27T20:26:21.213Z,14.90
2018-04-27T20:28:50.506Z,14.81
2018-04-27T20:31:18.845Z,14.74
2018-04-27T20:33:47.188Z,14.71
2018-04-27T20:36:15.512Z,14.58
2018-04-27T20:38:43.871Z,14.46
2018-04-27T20:41:13.184Z,14.32
2018-04-27T20:43:43.049Z,14.26
2018-04-27T20:46:11.377Z,14.22
2018-04-27T20:48:39.728Z,14.18
2018-04-27T20:51:08.859Z,14.13
2018-04-27T20:53:51.945Z,14.10
2018-04-27T20:56:20.268Z,14.09
2018-04-27T20:58:48.611Z,14.11
2018-04-27T21:01:16.935Z,14.14
2018-04-27T21:03:45.297Z,14.12
2018-04-27T21:06:14.215Z,14.13
2018-04-27T21:08:42.560Z,14.12
2018-04-27T21:11:10.885Z,14.11
2018-04-27T21:13:39.228Z,14.03
2018-04-27T21:16:07.558Z,13.99
2018-04-27T21:18:35.904Z,13.99
2018-04-27T21:21:04.236Z,13.99
2018-04-27T21:23:32.589Z,13.99
2018-04-27T21:26:00.925Z,13.90
2018-04-27T21:28:30.789Z,13.81
2018-04-27T21:30:59.912Z,13.81
2018-04-27T21:33:28.232Z,13.80
2018-04-27T21:35:57.177Z,13.80
2018-04-27T21:38:40.395Z,13.75
2018-04-27T21:41:23.751Z,13.63
2018-04-27T21:43:52.849Z,13.53
2018-04-27T21:46:25.133Z,13.48
2018-04-27T21:48:53.469Z,13.42
2018-04-27T21:51:41.217Z,13.35
2018-04-27T21:54:10.465Z,13.23
2018-04-27T21:56:47.336Z,13.20
2018-04-27T21:59:19.156Z,13.13
2018-04-27T22:01:47.480Z,13.18
2018-04-27T22:04:15.825Z,13.27
2018-04-27T22:06:44.144Z,13.30
2018-04-27T22:09:12.496Z,13.35
2018-04-27T22:11:49.540Z,13.37
2018-04-27T22:14:23.221Z,13.34
2018-04-27T22:16:52.328Z,13.30
2018-04-27T22:19:20.685Z,13.30
2018-04-27T22:21:51.731Z,13.28
2018-04-27T22:24:22.793Z,13.20
2018-04-27T22:27:06.157Z,13.16
2018-04-27T22:29:35.324Z,13.09
2018-04-27T22:32:23.252Z,13.09
2018-04-27T22:34:54.300Z,13.06
2018-04-27T22:37:22.615Z,13.06
2018-04-27T22:42:56.586Z,12.99
2018-04-27T22:45:25.680Z,12.91
2018-04-27T22:51:14.628Z,12.84
2018-04-27T22:53:48.513Z,12.78
2018-04-27T22:59:31.436Z,12.69
2018-04-27T23:04:59.541Z,12.76
2018-04-27T23:07:37.001Z,12.74
2018-04-27T23:10:07.108Z,12.72
2018-04-27T23:12:35.441Z,12.72
2018-04-27T23:15:05.465Z,12.75
2018-04-27T23:17:33.817Z,12.82
2018-04-27T23:20:03.732Z,12.86
2018-04-27T23:22:38.483Z,12.85
2018-04-27T23:25:23.436Z,12.84
2018-04-27T23:27:51.764Z,12.80
2018-04-27T23:30:22.649Z,12.82
2018-04-27T23:32:50.981Z,12.80
2018-04-27T23:35:19.321Z,12.83
2018-04-27T23:37:47.661Z,12.81
2018-04-27T23:40:16.004Z,12.82
2018-04-27T23:42:44.332Z,12.78
2018-04-27T23:45:15.217Z,12.70
2018-04-27T23:47:43.535Z,12.68
2018-04-27T23:50:22.449Z,12.69
2018-04-27T23:52:50.776Z,12.69
2018-04-27T23:55:19.132Z,12.66
2018-04-27T23:57:47.465Z,12.68
